Nearby METAR Reports

 

KTTN - Trenton, New Jersey, USA
Distance from station: W 8mi, 12km
Updated: Tue, 22-Jun-2021 6:53am EDT
Partly cloudy
Partly cloudy
 Wind from SW
Wind: SW 3 mph , 6 km/h
Temperature: 72°F , 22°C
Dew Point: 70°F , 21°C
Humidity: 94%
Barometer: 29.69 inHg , 1005.4 hPa
Clouds: Partly cloudy
Visibility: 10 miles , 16 km
Cloud details: Partly cloudy 9000 ft
2021/06/22 10:53 KTTN 221053Z 23003KT 10SM SCT090 22/21 A2969 RMK AO2 SLP046 T02170211
KWRI - Wrightst/Mcguire, New Jersey, USA
Distance from station: SSE 18mi, 29km
Updated: Tue, 22-Jun-2021 6:56am EDT
Partly cloudy
Partly cloudy
 Wind from WSW
Wind: WSW 6 mph , 9 km/h
Temperature: 70°F , 21°C
Dew Point: 70°F , 21°C
Humidity: 100%
Barometer: 29.69 inHg , 1005.4 hPa
Clouds: Partly cloudy
Visibility: 10 miles , 16 km
Cloud details: Partly cloudy 20000 ft
2021/06/22 10:56 KWRI 221056Z 24005KT 10SM SCT200 21/21 A2969 RMK AO2A SLP053 T02120210
KPNE - Philadelphia/Ne, Pennsylvania, USA
Distance from station: SW 22mi, 35km
Updated: Tue, 22-Jun-2021 6:54am EDT
Mostly cloudy
Mostly cloudy
 Wind from SW
Wind: SW 5 mph , 7 km/h
Temperature: 73°F , 23°C
Dew Point: 70°F , 21°C
Humidity: 89%
Barometer: 29.71 inHg , 1006.1 hPa
Clouds: Mostly cloudy
Visibility: 10 miles , 16 km
Cloud details: Mostly cloudy 7500 ft
2021/06/22 10:54 KPNE 221054Z 23004KT 10SM BKN075 23/21 A2971 RMK AO2 SLP058 T02280206
 
KDYL - Doylestown, Pennsylvania, USA
Distance from station: W 24mi, 38km
Updated: Fri, 18-Jun-2021 11:54pm EDT
NOT Current
Clear
Clear
 Wind from SSW
Wind: SSW 7 mph , 11 km/h
Temperature: 73°F , 23°C
Dew Point: 57°F , 14°C
Humidity: 57%
Barometer: 29.86 inHg , 1011.2 hPa
Clouds: Clear
Visibility: 10 miles , 16 km
2021/06/19 03:54 KDYL 190354Z AUTO 20006KT 10SM CLR 23/14 A2986 RMK AO2 SLP107 T02280139
KSMQ - Somerville, New Jersey, USA
Distance from station: 0 24mi, 39km
Updated: Tue, 22-Jun-2021 6:53am EDT
Mist, Mostly cloudy
Mist, Mostly cloudy
 Wind from calm
Wind: Calm
Temperature: 72°F , 22°C
Dew Point: 70°F , 21°C
Humidity: 94%
Barometer: 29.68 inHg , 1005.1 hPa
Summary: Mist
Clouds: Mostly cloudy
Visibility: 6 miles , 10 km
Cloud details: Mostly cloudy 9000 ft
2021/06/22 10:53 KSMQ 221053Z AUTO 00000KT 6SM BR BKN090 22/21 A2968 RMK AO2 SLP047 T02170206
KVAY - Mount Holly, New Jersey, USA
Distance from station: SSW 24mi, 39km
Updated: Tue, 22-Jun-2021 6:54am EDT
Few Clouds
Few Clouds
 Wind from SW
Wind: SW 5 mph , 7 km/h
Temperature: 72°F , 22°C
Dew Point: 70°F , 21°C
Humidity: 94%
Barometer: 29.69 inHg , 1005.4 hPa
Clouds: Few Clouds
Visibility: 10 miles , 16 km
Cloud details: Few Clouds 7000 ft
2021/06/22 10:54 KVAY 221054Z AUTO 22004KT 10SM FEW070 22/21 A2969 RMK AO2 SLP055 T02170206
 
KNEL - Lakehurst Nas, New Jersey, USA
Distance from station: SE 25mi, 40km
Updated: Tue, 22-Jun-2021 7:00am EDT
Clear
Clear
 Wind from W
Wind: W 6 mph , 9 km/h
Barometer: 29.69 inHg , 1005.4 hPa
Clouds: Clear
Visibility: 10 miles , 16 km
2021/06/22 11:00 KNEL 221100Z AUTO 26005KT 10SM CLR A2969 RMK AO2 SLPNO PNO $
KBLM - Belmar/Farmdale, New Jersey, USA
Distance from station: ESE 30mi, 48km
Updated: Tue, 22-Jun-2021 6:56am EDT
Clear
Clear
 Wind from WSW
Wind: WSW 6 mph , 9 km/h
Temperature: 72°F , 22°C
Dew Point: 70°F , 21°C
Humidity: 94%
Barometer: 29.70 inHg , 1005.8 hPa
Clouds: Clear
Visibility: 10 miles , 16 km
2021/06/22 10:56 KBLM 221056Z AUTO 24005KT 10SM CLR 22/21 A2970 RMK AO2 SLP057 T02170211 PNO $
KMJX - Toms River, New Jersey, USA
Distance from station: SE 30mi, 49km
Updated: Sun, 20-Jun-2021 8:56pm EDT
NOT Current
Clear
Clear
 Wind from S
Wind: S 7 mph , 11 km/h
Temperature: 77°F , 25°C
Dew Point: 70°F , 21°C
Humidity: 79%
Barometer: 29.81 inHg , 1009.5 hPa
Clouds: Clear
Visibility: 10 miles , 16 km
2021/06/21 00:56 KMJX 210056Z AUTO 18006KT 10SM CLR 25/21 A2981 RMK AO2 SLP096 T02500206 TSNO
 
KLOM - Philly Wings F, Pennsylvania, USA
Distance from station: WSW 33mi, 52km
Updated: Tue, 22-Jun-2021 6:55am EDT
Partly cloudy
Partly cloudy
 Wind from SW
Wind: SW 3 mph , 6 km/h
Temperature: 70°F , 21°C
Dew Point: 68°F , 20°C
Humidity: 94%
Barometer: 29.71 inHg , 1006.1 hPa
Clouds: Partly cloudy
Visibility: 10 miles , 16 km
Cloud details: Partly cloudy 8000 ft
2021/06/22 10:55 KLOM 221055Z AUTO 22003KT 10SM SCT080 21/20 A2971 RMK AO2 T02130204
KCKZ - Perkasie, Pennsylvania, USA
Distance from station: WNW 33mi, 53km
Updated: Tue, 22-Jun-2021 6:55am EDT
Mist, Few clouds
Mist, Few clouds
 Wind from calm
Wind: Calm
Temperature: 68°F , 20°C
Dew Point: 68°F , 20°C
Humidity: 100%
Barometer: 29.71 inHg , 1006.1 hPa
Summary: Mist
Clouds: Few Clouds
Visibility: 3 miles , 5 km
Cloud details: Few Clouds 8500 ft
2021/06/22 10:55 KCKZ 221055Z AUTO 00000KT 3SM BR FEW085 20/20 A2971 RMK AO2
KLDJ - Linden, New Jersey, USA
Distance from station: NE 33mi, 53km
Updated: Mon, 21-Jun-2021 8:15pm EDT
NOT Current
Clear
Clear
 Wind from SSW
Wind: SSW 7 mph , 11 km/h
Temperature: 84°F , 29°C
Heat Index: 87°F , 31°C
Dew Point: 68°F , 20°C
Humidity: 58%
Barometer: 29.60 inHg , 1002.4 hPa
Clouds: Clear
Visibility: 10 miles , 16 km
2021/06/22 00:15 KLDJ 220015Z AUTO 21006KT 10SM CLR 29/20 A2960 RMK AO2 LTG DSNT W T02920201
 
KMMU - Morristown Muni, New Jersey, USA
Distance from station: NNE 38mi, 62km
Updated: Tue, 22-Jun-2021 6:45am EDT
Partly cloudy
Partly cloudy
 Wind from SSW
Wind: SSW 3 mph , 6 km/h
Temperature: 73°F , 23°C
Dew Point: 73°F , 23°C
Humidity: 100%
Barometer: 29.68 inHg , 1005.1 hPa
Clouds: Partly cloudy
Visibility: 8 miles , 13 km
Cloud details: Partly cloudy 9000 ft
2021/06/22 10:45 KMMU 221045Z 20003KT 8SM SCT090 23/23 A2968
KEWR - Newark, New Jersey, USA
Distance from station: NE 39mi, 63km
Updated: Tue, 22-Jun-2021 6:51am EDT
Mostly cloudy
Mostly cloudy
 Wind from WSW
Wind: WSW 9 mph , 15 km/h
Temperature: 73°F , 23°C
Dew Point: 70°F , 21°C
Humidity: 89%
Barometer: 29.66 inHg , 1004.4 hPa
Clouds: Mostly cloudy
Visibility: 10 miles , 16 km
Cloud details: Few Clouds 2500 ft
Mostly cloudy 9000 ft
Mostly cloudy 25000 ft
2021/06/22 10:51 KEWR 221051Z 24008KT 10SM FEW025 BKN090 BKN250 23/21 A2966 RMK AO2 SLP045 T02330206
KUKT - Quakertown Arp, Pennsylvania, USA
Distance from station: WNW 39mi, 63km
Updated: Tue, 22-Jun-2021 6:55am EDT
Mist, Few clouds
Mist, Few clouds
 Wind from calm
Wind: Calm
Temperature: 68°F , 20°C
Dew Point: 68°F , 20°C
Humidity: 100%
Barometer: 29.71 inHg , 1006.1 hPa
Summary: Mist
Clouds: Few Clouds
Visibility: 6 miles , 10 km
Cloud details: Few Clouds 8500 ft
2021/06/22 10:55 KUKT 221055Z AUTO 00000KT 6SM BR FEW085 20/20 A2971 RMK A01
 
KPHL - Philadelphia, Pennsylvania, USA
Distance from station: SW 40mi, 65km
Updated: Tue, 22-Jun-2021 6:54am EDT
Mostly cloudy
Mostly cloudy
 Wind from SSW
Wind: SSW 5 mph , 7 km/h
Temperature: 72°F , 22°C
Dew Point: 70°F , 21°C
Humidity: 94%
Barometer: 29.70 inHg , 1005.8 hPa
Clouds: Mostly cloudy
Visibility: 10 miles , 16 km
Cloud details: Few Clouds 1000 ft
Partly cloudy 5000 ft
Mostly cloudy 7000 ft
Mostly cloudy 28000 ft
2021/06/22 10:54 KPHL 221054Z 20004KT 10SM FEW010 SCT050 BKN070 BKN280 22/21 A2970 RMK AO2 SLP057 T02220211 $
KJRB - Manhattan/Dwntwn, New York, USA
Distance from station: NE 46mi, 74km
Updated: Tue, 22-Jun-2021 6:56am EDT
Mostly cloudy
Mostly cloudy
 Wind from SW
Wind: SW 6 mph , 9 km/h
Temperature: 72°F , 22°C
Dew Point: 68°F , 20°C
Humidity: 88%
Barometer: 29.68 inHg , 1005.1 hPa
Clouds: Mostly cloudy
Visibility: 10 miles , 16 km
Cloud details: Mostly cloudy 9500 ft
2021/06/22 10:56 KJRB 221056Z AUTO 23005KT 10SM BKN095 22/20 A2968 RMK AO2 SLP050 T02220200
KPTW - Pottstown, Pennsylvania, USA
Distance from station: W 46mi, 74km
Updated: Tue, 22-Jun-2021 6:54am EDT
Few Clouds
Few Clouds
 Wind from WNW
Wind: WNW 3 mph , 6 km/h
Temperature: 70°F , 21°C
Dew Point: 66°F , 19°C
Humidity: 88%
Barometer: 29.71 inHg , 1006.1 hPa
Clouds: Few Clouds
Cloud details: Few Clouds 8500 ft
2021/06/22 10:54 KPTW 221054Z AUTO 30003KT FEW085 21/19 A2971 RMK AO2 SLP056 T02060194
 
KCDW - Caldwell, New Jersey, USA
Distance from station: NNE 47mi, 76km
Updated: Tue, 22-Jun-2021 6:53am EDT
Mostly cloudy
Mostly cloudy
 Wind from SW
Wind: SW 3 mph , 6 km/h
Temperature: 73°F , 23°C
Dew Point: 68°F , 20°C
Humidity: 83%
Barometer: 29.68 inHg , 1005.1 hPa
Clouds: Mostly cloudy
Visibility: 10 miles , 16 km
Cloud details: Mostly cloudy 9000 ft
2021/06/22 10:53 KCDW 221053Z 23003KT 10SM BKN090 23/20 A2968 RMK AO2 SLP053 T02330200
KXLL - Allentown Queen, Pennsylvania, USA
Distance from station: WNW 47mi, 76km
Updated: Tue, 22-Jun-2021 6:55am EDT
Overcast
Overcast
 Wind from S
Wind: S 3 mph , 6 km/h
Temperature: 70°F , 21°C
Dew Point: 68°F , 20°C
Humidity: 94%
Barometer: 29.71 inHg , 1006.1 hPa
Clouds: Overcast
Visibility: 7 miles , 11 km
Cloud details: Partly cloudy 2400 ft
Overcast 5000 ft
2021/06/22 10:55 KXLL 221055Z AUTO 18003KT 7SM SCT024 OVC050 21/20 A2971 RMK AO2